Time;durP1;ratioP1;P1;durP2;ratioP2;P2;SDS_P1;SDS_P2;PMS_P1;PMS_P2;Temp;Humidity;BMP_temperature;BMP_pressure;BME280_temperature;BME280_humidity;BME280_pressure;Samples;Min_cycle;Max_cycle;Signal;HPM_P1;HPM_P2
2022/04/17 00:00:10;;;;;;;10.98;8.70;;;;;;;15.34;54.31;101603.44;5054368;28;20029;-91
2022/04/17 00:02:39;;;;;;;12.05;8.13;;;;;;;15.35;54.07;101599.88;5054592;28;20032;-91
2022/04/17 00:05:05;;;;;;;13.40;9.43;;;;;;;15.26;53.85;101584.63;5055851;28;20029;-91
2022/04/17 00:07:32;;;;;;;14.95;9.35;;;;;;;15.34;53.57;101606.09;5054827;28;20119;-91
2022/04/17 00:09:58;;;;;;;13.57;9.80;;;;;;;14.98;54.10;101607.66;5055325;28;20060;-92
2022/04/17 00:12:25;;;;;;;16.70;10.95;;;;;;;15.15;51.45;101593.31;5055374;28;20407;-91
2022/04/17 00:14:51;;;;;;;18.13;11.25;;;;;;;15.12;50.82;101593.50;5053658;28;20025;-91
2022/04/17 00:17:17;;;;;;;15.45;10.13;;;;;;;15.29;49.99;101581.78;5054918;28;20040;-91
2022/04/17 00:19:42;;;;;;;18.45;9.80;;;;;;;15.22;49.93;101588.44;5055080;28;20032;-92
2022/04/17 00:22:07;;;;;;;16.52;10.52;;;;;;;15.30;49.49;101583.44;5054898;28;20051;-92
2022/04/17 00:24:33;;;;;;;15.10;10.57;;;;;;;15.53;49.14;101583.66;5055176;28;20056;-91
2022/04/17 00:27:00;;;;;;;19.90;10.52;;;;;;;15.58;48.76;101579.75;5055141;28;20078;-92
2022/04/17 00:29:27;;;;;;;14.90;10.18;;;;;;;15.62;48.92;101585.66;5053378;28;20052;-92
2022/04/17 00:31:52;;;;;;;14.07;9.85;;;;;;;15.58;49.07;101585.03;5054786;28;20071;-89
2022/04/17 00:34:19;;;;;;;15.70;10.43;;;;;;;15.52;48.82;101585.47;5053170;28;20028;-89
2022/04/17 00:36:44;;;;;;;14.98;10.68;;;;;;;15.38;49.38;101580.28;5052880;28;20021;-90
2022/04/17 00:39:10;;;;;;;17.00;10.52;;;;;;;15.55;48.53;101590.53;5054655;28;20115;-91
2022/04/17 00:41:35;;;;;;;17.95;9.98;;;;;;;15.58;49.20;101581.53;5054506;28;20036;-90
2022/04/17 00:44:01;;;;;;;15.25;10.45;;;;;;;15.54;48.90;101574.75;5053396;28;20055;-91
2022/04/17 00:46:26;;;;;;;12.90;9.93;;;;;;;15.53;48.52;101573.09;5054628;28;20039;-92
2022/04/17 00:48:52;;;;;;;12.30;9.27;;;;;;;15.56;49.11;101586.09;5054448;28;20029;-92
2022/04/17 00:51:17;;;;;;;16.90;9.95;;;;;;;15.58;48.75;101571.81;5053000;28;20567;-92
2022/04/17 00:53:43;;;;;;;16.20;10.35;;;;;;;15.61;48.43;101576.88;5053097;28;20083;-92
2022/04/17 00:56:09;;;;;;;17.10;10.57;;;;;;;15.66;48.22;101572.09;5054189;28;20032;-92
2022/04/17 00:58:37;;;;;;;17.17;10.00;;;;;;;15.63;48.24;101571.47;5054194;28;20471;-91
2022/04/17 01:01:02;;;;;;;16.50;9.70;;;;;;;15.65;48.74;101577.50;5054176;28;20038;-92
2022/04/17 01:03:28;;;;;;;13.35;9.70;;;;;;;15.55;49.29;101558.78;5053943;28;20526;-92
2022/04/17 01:05:53;;;;;;;12.88;9.15;;;;;;;15.44;49.51;101554.25;5054083;28;20514;-92
2022/04/17 01:08:20;;;;;;;13.65;8.90;;;;;;;15.41;49.91;101551.81;5054272;28;20021;-91
2022/04/17 01:10:45;;;;;;;13.73;9.25;;;;;;;15.30;50.34;101543.75;5053561;28;20116;-91
2022/04/17 01:13:11;;;;;;;12.80;8.65;;;;;;;15.21;50.43;101539.97;5054621;28;20099;-92
2022/04/17 01:15:37;;;;;;;13.15;9.50;;;;;;;15.18;50.56;101542.81;5052910;28;20163;-91
2022/04/17 01:18:03;;;;;;;15.40;8.80;;;;;;;15.08;50.45;101537.31;5053953;28;20025;-92
2022/04/17 01:20:29;;;;;;;12.13;8.45;;;;;;;15.05;51.13;101537.53;5053508;28;20371;-91
2022/04/17 01:26:56;;;;;;;12.82;8.52;;;;;;;14.97;51.38;101537.22;5054037;28;20025;-91
2022/04/17 01:28:26;;;;;;;14.23;8.63;;;;;;;14.83;52.05;101543.47;5054118;28;20028;-91
2022/04/17 01:30:54;;;;;;;11.48;8.40;;;;;;;14.78;52.14;101534.97;5053283;28;20063;-91
2022/04/17 01:33:20;;;;;;;13.23;9.43;;;;;;;14.70;52.41;101539.09;5053761;28;20021;-92
2022/04/17 01:35:45;;;;;;;14.88;9.43;;;;;;;14.60;52.06;101529.13;5053416;28;20394;-91
2022/04/17 01:38:10;;;;;;;13.60;10.13;;;;;;;14.54;52.11;101521.59;5052180;28;20028;-91
2022/04/17 01:40:36;;;;;;;14.48;9.88;;;;;;;14.59;51.87;101527.47;5053455;28;20052;-91
2022/04/17 01:43:01;;;;;;;16.10;10.27;;;;;;;14.60;52.20;101529.13;5052252;28;20099;-91
2022/04/17 01:45:26;;;;;;;14.63;10.40;;;;;;;14.57;52.08;101523.19;5053433;28;20033;-92
2022/04/17 01:47:54;;;;;;;21.15;12.13;;;;;;;14.53;51.89;101525.16;5053359;28;20029;-91
2022/04/17 01:50:19;;;;;;;16.17;10.98;;;;;;;14.50;52.00;101516.63;5053421;28;20487;-92
2022/04/17 01:52:45;;;;;;;15.27;11.25;;;;;;;14.48;52.72;101511.44;5051954;28;20059;-92
2022/04/17 01:55:11;;;;;;;16.75;11.02;;;;;;;14.42;52.87;101515.31;5053063;28;20033;-92
2022/04/17 01:57:36;;;;;;;18.35;12.50;;;;;;;14.38;53.23;101513.00;5051895;28;20494;-92
2022/04/17 02:00:02;;;;;;;15.75;10.20;;;;;;;14.25;53.70;101508.50;5053025;28;20009;-91
2022/04/17 02:02:27;;;;;;;13.60;10.45;;;;;;;14.14;54.08;101500.47;5052860;28;20024;-91
2022/04/17 02:04:53;;;;;;;14.20;10.10;;;;;;;14.12;54.88;101498.84;5052712;28;20035;-91
2022/04/17 02:07:18;;;;;;;14.73;10.32;;;;;;;13.97;54.99;101482.22;5052973;28;20104;-92
2022/04/17 02:09:43;;;;;;;13.93;10.65;;;;;;;13.97;55.25;101492.78;5051686;28;20035;-91
2022/04/17 02:12:09;;;;;;;15.68;11.38;;;;;;;13.80;55.65;101476.25;5051670;28;20471;-91
2022/04/17 02:14:34;;;;;;;19.55;12.60;;;;;;;13.74;56.03;101481.91;5051435;28;20056;-91
2022/04/17 02:17:00;;;;;;;17.67;11.98;;;;;;;13.78;55.94;101493.13;5052543;28;20075;-91
2022/04/17 02:19:25;;;;;;;14.32;10.30;;;;;;;13.56;56.28;101475.16;5052304;28;20024;-90
2022/04/17 02:21:50;;;;;;;16.83;12.23;;;;;;;13.58;56.33;101481.19;5053403;28;20028;-91
2022/04/17 02:24:16;;;;;;;15.00;11.13;;;;;;;13.58;57.06;101487.31;5052753;28;20391;-91
2022/04/17 02:26:41;;;;;;;15.82;11.43;;;;;;;13.42;56.96;101463.69;5051473;28;20375;-91
2022/04/17 02:29:06;;;;;;;17.27;12.45;;;;;;;13.42;56.95;101465.47;5052610;28;20471;-91
2022/04/17 02:31:32;;;;;;;15.60;12.05;;;;;;;13.27;57.24;101447.00;5052683;28;20036;-91
2022/04/17 02:33:59;;;;;;;16.58;11.73;;;;;;;13.39;57.39;101466.53;5053042;28;20024;-91
2022/04/17 02:36:25;;;;;;;17.17;12.00;;;;;;;13.31;57.30;101452.13;5052975;28;20506;-91
2022/04/17 02:38:50;;;;;;;16.65;12.27;;;;;;;13.24;57.48;101446.34;5058987;28;20016;-91
2022/04/17 02:41:16;;;;;;;17.00;12.30;;;;;;;13.22;57.71;101451.72;5057862;28;20021;-91
2022/04/17 02:43:41;;;;;;;15.52;11.43;;;;;;;13.17;57.79;101448.53;5057397;28;20021;-91
2022/04/17 02:46:06;;;;;;;17.40;12.95;;;;;;;13.06;57.47;101446.56;5057676;28;20489;-90
2022/04/17 02:48:32;;;;;;;20.08;14.00;;;;;;;13.06;57.38;101445.72;5059158;28;20032;-92
2022/04/17 02:50:58;;;;;;;20.40;14.50;;;;;;;12.90;57.50;101427.34;5059021;28;20050;-91
2022/04/17 02:53:24;;;;;;;18.70;13.02;;;;;;;13.05;57.54;101446.63;5059404;28;20442;-91
2022/04/17 02:55:50;;;;;;;17.13;12.50;;;;;;;12.90;58.02;101432.63;5059686;28;20032;-90
2022/04/17 02:58:15;;;;;;;20.92;13.30;;;;;;;12.95;58.22;101430.53;5060526;28;20493;-91
2022/04/17 03:06:10;;;;;;;17.95;12.75;;;;;;;12.99;58.12;101432.03;5061029;28;20090;-91
2022/04/17 03:08:41;;;;;;;18.42;14.05;;;;;;;12.96;58.26;101424.34;5059885;28;20024;-89
2022/04/17 03:11:07;;;;;;;21.02;14.32;;;;;;;12.91;58.53;101415.84;5063601;28;20112;-89
2022/04/17 03:13:33;;;;;;;20.17;13.85;;;;;;;12.84;58.29;101401.38;5068100;28;20056;-90
2022/04/17 03:15:59;;;;;;;18.88;13.73;;;;;;;13.01;58.63;101421.41;5070599;28;20032;-88
2022/04/17 03:18:24;;;;;;;22.85;16.10;;;;;;;13.02;58.21;101425.75;5068666;28;20032;-89
2022/04/17 03:20:49;;;;;;;23.13;16.40;;;;;;;13.04;58.07;101414.16;5077147;28;20054;-89
2022/04/17 03:23:15;;;;;;;23.30;15.00;;;;;;;13.07;57.68;101410.47;5077394;28;20025;-89
2022/04/17 03:25:41;;;;;;;24.08;16.10;;;;;;;13.13;57.67;101401.34;5075135;28;20441;-88
2022/04/17 03:28:06;;;;;;;23.92;15.55;;;;;;;13.10;57.59;101382.13;5071689;28;20017;-89
2022/04/17 03:30:31;;;;;;;21.45;14.98;;;;;;;13.24;57.38;101393.59;5068142;28;20036;-88
2022/04/17 03:32:57;;;;;;;21.58;14.38;;;;;;;13.23;57.34;101397.19;5069343;28;20107;-89
2022/04/17 03:35:23;;;;;;;22.67;14.88;;;;;;;13.26;57.96;101403.09;5068522;28;20025;-89
2022/04/17 03:37:48;;;;;;;21.42;15.70;;;;;;;13.27;57.33;101406.63;5068508;28;20029;-90
2022/04/17 03:40:16;;;;;;;19.98;13.70;;;;;;;13.17;57.74;101387.03;5067449;28;20031;-90
2022/04/17 03:42:42;;;;;;;19.60;14.40;;;;;;;13.20;57.57;101392.94;5065816;28;20434;-88
2022/04/17 03:45:11;;;;;;;22.58;16.95;;;;;;;13.18;57.50;101378.19;5066661;28;20104;-88
2022/04/17 03:47:37;;;;;;;22.52;15.32;;;;;;;13.22;57.42;101388.44;5064590;28;20483;-90
2022/04/17 03:50:03;;;;;;;19.60;15.25;;;;;;;13.16;57.59;101380.91;5060594;28;20414;-90
2022/04/17 03:52:40;;;;;;;22.63;16.00;;;;;;;13.17;57.63;101384.38;5065496;28;20509;-88
2022/04/17 03:55:06;;;;;;;21.33;14.45;;;;;;;13.07;57.94;101361.25;5064462;28;20025;-88
2022/04/17 03:57:32;;;;;;;20.00;14.68;;;;;;;13.08;58.13;101370.84;5062310;28;20435;-88
2022/04/17 03:59:58;;;;;;;26.58;16.88;;;;;;;13.02;58.09;101368.59;5064117;28;20028;-88
2022/04/17 04:02:24;;;;;;;20.38;14.68;;;;;;;12.99;58.02;101363.50;5062317;28;20024;-87
2022/04/17 04:04:50;;;;;;;21.42;15.48;;;;;;;12.95;58.19;101359.38;5057925;28;20064;-90
2022/04/17 04:07:16;;;;;;;22.60;15.60;;;;;;;12.95;58.26;101364.63;5056747;28;20033;-90
2022/04/17 04:09:41;;;;;;;23.83;17.20;;;;;;;12.88;58.62;101363.34;5056355;28;20025;-91
2022/04/17 04:12:07;;;;;;;23.83;14.93;;;;;;;12.76;58.70;101343.03;5056567;28;20028;-90
2022/04/17 04:14:32;;;;;;;21.17;15.70;;;;;;;12.94;58.16;101356.84;5055532;28;20025;-92
2022/04/17 04:16:59;;;;;;;21.95;14.73;;;;;;;12.98;58.03;101346.00;5056082;28;20021;-92
2022/04/17 04:19:25;;;;;;;22.95;15.35;;;;;;;13.03;57.92;101349.22;5056209;28;20021;-90
2022/04/17 04:21:50;;;;;;;20.60;14.38;;;;;;;13.07;58.16;101342.78;5057123;28;20096;-90
2022/04/17 04:24:18;;;;;;;20.27;14.13;;;;;;;13.10;57.95;101349.66;5056524;28;20078;-91
2022/04/17 04:26:43;;;;;;;22.77;15.55;;;;;;;13.08;57.68;101343.63;5053974;28;20495;-91
2022/04/17 04:29:09;;;;;;;22.73;15.85;;;;;;;13.07;57.75;101347.19;5055565;28;20059;-92
2022/04/17 04:31:35;;;;;;;23.50;15.05;;;;;;;13.07;58.05;101348.06;5054270;28;20036;-90
2022/04/17 04:34:00;;;;;;;24.70;15.55;;;;;;;12.94;58.22;101328.69;5055547;28;20035;-91
2022/04/17 04:36:26;;;;;;;22.58;15.50;;;;;;;13.03;58.28;101358.88;5053573;28;20031;-91
2022/04/17 04:38:51;;;;;;;23.50;15.88;;;;;;;13.00;58.16;101343.28;5055321;28;20036;-91
2022/04/17 04:41:16;;;;;;;23.02;15.65;;;;;;;13.05;58.38;101357.00;5054843;28;20036;-91
2022/04/17 04:43:42;;;;;;;23.67;15.73;;;;;;;13.03;58.54;101354.47;5053835;28;20471;-91
2022/04/17 04:46:07;;;;;;;22.63;15.68;;;;;;;12.88;58.44;101337.81;5055428;28;20029;-91
2022/04/17 04:51:26;;;;;;;22.92;15.40;;;;;;;12.99;58.55;101347.69;5041537;28;20099;-91
2022/04/17 04:53:52;;;;;;;22.80;16.00;;;;;;;12.97;58.32;101346.94;5034665;28;20025;-90
2022/04/17 04:56:20;;;;;;;27.00;18.08;;;;;;;13.04;58.24;101350.06;5034472;28;20030;-90
2022/04/17 04:58:45;;;;;;;25.13;17.35;;;;;;;13.07;57.90;101345.44;5035100;28;20033;-91
2022/04/17 05:01:12;;;;;;;25.40;18.08;;;;;;;13.07;57.51;101324.34;5032198;28;20013;-92
2022/04/17 05:03:37;;;;;;;24.95;17.88;;;;;;;13.22;57.28;101326.94;5033551;28;20457;-90
2022/04/17 05:06:03;;;;;;;29.85;18.35;;;;;;;13.24;57.01;101322.41;5034425;28;20133;-90
2022/04/17 05:08:29;;;;;;;30.52;19.15;;;;;;;13.25;56.92;101310.88;5033011;28;20120;-91
2022/04/17 05:10:54;;;;;;;26.67;17.83;;;;;;;13.42;56.58;101328.31;5034294;28;20368;-91
2022/04/17 05:13:20;;;;;;;26.38;16.25;;;;;;;13.46;56.85;101335.91;5032766;28;20112;-91
2022/04/17 05:15:45;;;;;;;25.10;17.38;;;;;;;13.39;56.69;101318.81;5034310;28;20045;-90
2022/04/17 05:18:10;;;;;;;24.77;16.90;;;;;;;13.28;57.03;101300.16;5032679;28;20083;-91
2022/04/17 05:20:36;;;;;;;25.23;16.88;;;;;;;13.35;57.23;101321.72;5034005;28;20037;-91
2022/04/17 05:23:29;;;;;;;27.83;17.67;;;;;;;13.32;57.29;101319.31;5035156;28;20083;-91
2022/04/17 05:25:57;;;;;;;25.25;16.75;;;;;;;13.33;56.97;101319.22;5035568;28;20554;-91
2022/04/17 05:28:23;;;;;;;25.10;16.15;;;;;;;13.40;57.31;101317.84;5032512;28;20060;-90
2022/04/17 05:30:49;;;;;;;24.55;16.98;;;;;;;13.37;57.42;101320.69;5033735;28;20116;-91
2022/04/17 05:33:17;;;;;;;27.55;18.60;;;;;;;13.42;57.21;101315.13;5033851;28;20063;-91
2022/04/17 05:35:43;;;;;;;24.20;17.83;;;;;;;13.41;56.97;101316.06;5033705;28;20036;-91
2022/04/17 05:38:08;;;;;;;24.80;16.52;;;;;;;13.46;57.00;101314.81;5033763;28;20480;-91
2022/04/17 05:40:42;;;;;;;27.70;17.65;;;;;;;13.57;56.56;101315.91;5033446;28;20085;-91
2022/04/17 05:43:07;;;;;;;28.42;18.25;;;;;;;13.49;56.59;101303.22;5033629;28;20492;-91
2022/04/17 05:45:34;;;;;;;28.13;18.10;;;;;;;13.64;55.85;101307.47;5033798;28;20053;-91
2022/04/17 05:48:00;;;;;;;29.70;18.25;;;;;;;13.71;56.00;101315.84;5033262;28;20096;-92
2022/04/17 05:50:27;;;;;;;28.88;17.90;;;;;;;13.74;55.99;101312.13;5033406;28;20022;-92
2022/04/17 05:52:52;;;;;;;29.27;17.98;;;;;;;13.82;55.55;101300.13;5033198;28;20022;-91
2022/04/17 05:55:18;;;;;;;23.73;16.08;;;;;;;13.82;55.59;101291.34;5033301;28;20025;-90
2022/04/17 05:57:43;;;;;;;24.45;16.83;;;;;;;13.90;55.48;101296.94;5033762;28;20022;-91
2022/04/17 06:00:09;;;;;;;23.23;17.33;;;;;;;13.96;55.95;101293.91;5048876;28;20082;-92
2022/04/17 06:02:38;;;;;;;24.20;17.35;;;;;;;13.99;55.81;101301.63;5033421;28;20498;-91
2022/04/17 06:05:05;;;;;;;27.25;17.90;;;;;;;14.10;55.21;101298.25;5033400;28;20040;-92
2022/04/17 06:07:30;;;;;;;24.88;17.95;;;;;;;14.18;55.26;101298.56;5033240;28;20030;-91
2022/04/17 06:10:00;;;;;;;26.17;16.83;;;;;;;14.11;55.26;101268.25;5032889;28;20511;-92
2022/04/17 06:12:25;;;;;;;26.40;18.25;;;;;;;14.26;54.86;101293.59;5033074;28;20060;-91
2022/04/17 06:14:50;;;;;;;26.92;17.20;;;;;;;14.32;54.92;101283.56;5033181;28;20049;-92
2022/04/17 06:17:16;;;;;;;26.48;17.98;;;;;;;14.42;54.65;101292.53;5033110;28;20060;-92
2022/04/17 06:19:42;;;;;;;23.13;16.58;;;;;;;14.43;54.44;101278.34;5048573;28;20506;-91
2022/04/17 06:22:10;;;;;;;25.88;18.13;;;;;;;14.49;54.14;101275.28;5033304;28;20029;-91
2022/04/17 06:24:36;;;;;;;27.70;17.98;;;;;;;14.41;54.38;101270.53;5033934;28;20025;-91
2022/04/17 06:27:01;;;;;;;24.23;16.55;;;;;;;14.63;54.63;101287.53;5034046;28;20067;-91
2022/04/17 06:29:26;;;;;;;25.73;17.45;;;;;;;14.71;54.15;101292.28;5031701;28;20380;-91
2022/04/17 06:31:52;;;;;;;24.73;16.48;;;;;;;14.76;54.26;101283.09;5031480;28;20129;-91
2022/04/17 06:34:17;;;;;;;25.55;17.48;;;;;;;14.82;54.11;101277.34;5032969;28;20029;-91
2022/04/17 06:36:42;;;;;;;26.10;17.50;;;;;;;14.92;54.24;101285.47;5031476;28;20539;-91
2022/04/17 06:39:08;;;;;;;24.08;15.75;;;;;;;15.01;53.87;101279.53;5032274;28;20431;-91
2022/04/17 06:41:33;;;;;;;23.58;17.98;;;;;;;15.05;53.34;101280.97;5033209;28;20025;-91
2022/04/17 06:43:59;;;;;;;21.20;15.65;;;;;;;15.12;53.46;101276.06;5032719;28;20033;-91
2022/04/17 06:46:24;;;;;;;24.15;17.10;;;;;;;15.36;53.33;101278.72;5032755;28;20435;-92
2022/04/17 06:48:49;;;;;;;27.05;18.60;;;;;;;15.50;52.61;101279.50;5031413;28;20136;-92
2022/04/17 06:51:15;;;;;;;27.33;18.00;;;;;;;15.79;52.22;101272.03;5048010;28;20022;-92
2022/04/17 06:53:40;;;;;;;24.90;17.30;;;;;;;16.13;51.48;101274.72;5032904;28;20033;-92
2022/04/17 06:56:12;;;;;;;24.52;18.70;;;;;;;16.19;50.61;101261.88;5033006;28;20025;-91
2022/04/17 06:58:37;;;;;;;24.38;17.67;;;;;;;16.60;50.13;101278.94;5034434;28;20021;-91
2022/04/17 07:01:03;;;;;;;26.25;17.63;;;;;;;16.77;49.84;101266.16;5032648;28;20040;-91
2022/04/17 07:03:28;;;;;;;27.58;18.48;;;;;;;17.03;49.54;101280.84;5033293;28;20112;-91
2022/04/17 07:05:53;;;;;;;23.20;16.65;;;;;;;17.39;48.76;101280.59;5047877;28;20037;-91
2022/04/17 07:08:19;;;;;;;25.48;17.83;;;;;;;17.84;48.03;101273.25;5031494;28;20033;-91
2022/04/17 07:10:44;;;;;;;26.48;18.88;;;;;;;18.20;46.67;101276.38;5032542;28;20052;-91
2022/04/17 07:13:15;;;;;;;28.27;18.20;;;;;;;18.65;45.95;101282.31;5032493;28;20108;-91
2022/04/17 07:15:41;;;;;;;25.33;17.98;;;;;;;19.14;45.17;101265.50;5031364;28;20039;-91
2022/04/17 07:18:06;;;;;;;28.20;18.48;;;;;;;19.39;44.67;101269.44;5035161;28;20033;-91
2022/04/17 07:20:32;;;;;;;25.70;17.58;;;;;;;19.69;44.01;101258.72;5031642;28;20044;-92
2022/04/17 07:23:00;;;;;;;27.42;18.00;;;;;;;19.94;43.49;101270.63;5030916;28;20036;-91
2022/04/17 07:25:25;;;;;;;22.92;17.33;;;;;;;19.80;42.91;101253.25;5036046;28;20030;-91
2022/04/17 07:27:53;;;;;;;28.10;17.65;;;;;;;19.85;43.35;101239.53;5053284;28;20141;-91
2022/04/17 07:30:22;;;;;;;26.10;17.98;;;;;;;19.92;43.70;101245.94;5037437;28;20439;-90
2022/04/17 07:32:50;;;;;;;26.23;17.02;;;;;;;19.89;43.46;101251.56;5035110;28;20053;-91
2022/04/17 07:35:17;;;;;;;28.60;17.42;;;;;;;19.59;43.66;101240.09;5036136;28;20033;-91
2022/04/17 07:37:50;;;;;;;23.48;17.58;;;;;;;19.68;43.51;101249.88;5036397;28;20029;-91
2022/04/17 07:40:21;;;;;;;26.15;17.30;;;;;;;19.48;43.91;101242.91;5036198;28;20022;-91
2022/04/17 07:42:48;;;;;;;25.88;17.50;;;;;;;19.48;43.80;101235.75;5036005;28;20112;-91
2022/04/17 07:45:14;;;;;;;26.23;18.63;;;;;;;19.47;44.11;101234.09;5036060;28;20029;-91
2022/04/17 07:47:41;;;;;;;26.75;18.67;;;;;;;19.70;43.73;101237.25;5041289;28;20026;-90
2022/04/17 07:50:07;;;;;;;26.00;18.48;;;;;;;19.79;43.42;101239.09;5070057;28;20136;-90
2022/04/17 07:52:34;;;;;;;23.52;17.23;;;;;;;19.89;43.25;101219.59;5053217;28;20089;-90
2022/04/17 07:55:00;;;;;;;25.10;18.45;;;;;;;20.12;43.40;101231.59;5042666;28;20030;-90
2022/04/17 07:57:26;;;;;;;23.63;17.38;;;;;;;20.38;42.52;101225.56;5036318;28;20099;-91
2022/04/17 07:59:55;;;;;;;25.27;18.13;;;;;;;20.48;42.72;101236.16;5034713;28;20052;-91
2022/04/17 08:02:28;;;;;;;24.77;18.05;;;;;;;20.74;42.30;101218.50;5034422;28;20025;-91
2022/04/17 08:04:55;;;;;;;22.73;17.88;;;;;;;20.99;42.03;101229.41;5035571;28;20061;-91
2022/04/17 08:07:22;;;;;;;22.45;17.55;;;;;;;21.46;41.52;101225.66;5034518;28;20378;-91
2022/04/17 08:09:48;;;;;;;25.38;18.70;;;;;;;21.53;40.82;101229.41;5034632;28;20100;-91
2022/04/17 08:12:13;;;;;;;22.52;15.98;;;;;;;21.75;40.74;101231.53;5035457;28;20053;-90
2022/04/17 08:14:39;;;;;;;19.55;15.52;;;;;;;21.85;40.66;101204.72;5035311;28;20087;-91
2022/04/17 08:17:04;;;;;;;24.27;16.95;;;;;;;21.84;40.27;101219.09;5034012;28;20026;-91
2022/04/17 08:19:32;;;;;;;20.20;16.25;;;;;;;22.02;40.48;101221.69;5035229;28;20029;-90
2022/04/17 08:22:01;;;;;;;21.80;16.27;;;;;;;22.38;39.94;101218.88;5035166;28;20109;-90
2022/04/17 08:24:26;;;;;;;21.50;16.42;;;;;;;22.42;39.01;101216.72;5035044;28;20036;-92
2022/04/17 08:26:52;;;;;;;23.15;17.02;;;;;;;22.31;39.36;101215.16;5035006;28;20029;-92
2022/04/17 08:29:19;;;;;;;22.02;14.95;;;;;;;22.45;39.60;101222.56;5036285;28;20033;-91
2022/04/17 08:31:44;;;;;;;21.02;16.23;;;;;;;22.15;39.80;101205.19;5035778;28;20022;-91
2022/04/17 08:34:10;;;;;;;20.90;16.13;;;;;;;22.30;39.68;101200.13;5036683;28;20101;-90
2022/04/17 08:36:35;;;;;;;20.95;16.80;;;;;;;22.71;39.43;101192.16;5035116;28;20034;-92
2022/04/17 08:39:01;;;;;;;19.77;15.18;;;;;;;23.03;38.61;101183.38;5035755;28;20391;-90
2022/04/17 08:41:27;;;;;;;23.35;16.52;;;;;;;23.01;38.47;101192.56;5036546;28;20026;-91
2022/04/17 08:43:52;;;;;;;24.75;15.32;;;;;;;23.42;37.71;101189.88;5037083;28;20029;-91
2022/04/17 08:46:18;;;;;;;20.17;14.65;;;;;;;23.73;37.93;101188.16;5036969;28;20026;-91
2022/04/17 08:48:44;;;;;;;19.70;15.95;;;;;;;23.75;36.95;101162.00;5035530;28;20029;-90
2022/04/17 08:51:09;;;;;;;17.63;13.73;;;;;;;24.27;36.92;101171.41;5034102;28;20472;-91
2022/04/17 08:53:36;;;;;;;18.02;11.52;;;;;;;24.77;36.53;101171.94;5050325;28;20101;-92
2022/04/17 08:56:02;;;;;;;19.23;13.88;;;;;;;25.06;35.70;101173.91;5033279;28;20029;-92
2022/04/17 08:58:27;;;;;;;20.10;15.25;;;;;;;25.26;35.50;101163.53;5034558;28;20028;-92
2022/04/17 09:00:53;;;;;;;19.92;14.70;;;;;;;25.25;35.29;101156.47;5034474;28;20399;-92
2022/04/17 09:03:18;;;;;;;20.63;15.20;;;;;;;25.17;35.13;101161.88;5034568;28;20030;-91
2022/04/17 09:05:44;;;;;;;18.10;12.82;;;;;;;25.29;34.83;101155.06;5049763;28;20409;-90
2022/04/17 09:08:14;;;;;;;22.48;15.02;;;;;;;25.05;35.16;101163.34;5034471;28;20101;-91
2022/04/17 09:10:42;;;;;;;17.47;13.67;;;;;;;25.40;34.80;101155.66;5035931;28;20116;-91
2022/04/17 09:13:07;;;;;;;18.30;13.20;;;;;;;25.64;34.80;101154.56;5036967;28;20026;-92
2022/04/17 09:15:36;;;;;;;20.23;14.48;;;;;;;25.51;34.39;101152.50;5035958;28;20051;-91
2022/04/17 09:18:05;;;;;;;19.17;14.38;;;;;;;25.73;34.34;101153.44;5034923;28;20450;-92
2022/04/17 09:20:31;;;;;;;19.27;14.38;;;;;;;25.47;35.13;101138.59;5034794;28;20025;-92
2022/04/17 09:23:01;;;;;;;18.45;13.63;;;;;;;25.64;34.99;101141.94;5036735;28;20055;-91
2022/04/17 09:25:27;;;;;;;19.02;13.15;;;;;;;26.08;34.47;101148.34;5035316;28;20507;-91
2022/04/17 09:28:02;;;;;;;18.48;14.25;;;;;;;26.21;34.09;101147.69;5035507;28;20038;-93
2022/04/17 09:30:36;;;;;;;17.60;13.05;;;;;;;26.42;34.26;101145.03;5034639;28;20034;-92
2022/04/17 09:33:09;;;;;;;18.60;14.20;;;;;;;26.23;34.26;101130.31;5035135;28;20419;-91
2022/04/17 09:35:35;;;;;;;17.60;13.35;;;;;;;26.49;34.22;101129.75;5034210;28;20030;-92
2022/04/17 09:38:04;;;;;;;17.17;13.38;;;;;;;26.44;33.71;101121.44;5032778;28;20033;-92
2022/04/17 09:40:31;;;;;;;15.63;11.57;;;;;;;26.94;33.54;101116.09;5032365;28;20028;-92
2022/04/17 09:43:13;;;;;;;15.75;12.73;;;;;;;27.09;32.87;101116.00;5033164;28;20017;-92
2022/04/17 09:46:05;;;;;;;15.18;12.25;;;;;;;26.80;33.41;101107.09;5033441;28;20472;-93
2022/04/17 09:48:33;;;;;;;14.65;12.27;;;;;;;26.96;33.61;101111.34;5032950;28;20021;-93
2022/04/17 09:51:00;;;;;;;15.02;11.90;;;;;;;27.18;32.90;101108.63;5033497;28;20017;-92
2022/04/17 09:54:01;;;;;;;15.20;12.20;;;;;;;27.38;33.14;101112.28;5033670;28;20021;-93
2022/04/17 09:56:32;;;;;;;14.95;11.15;;;;;;;27.41;31.96;101098.44;5033474;28;20480;-93
2022/04/17 09:58:57;;;;;;;9.93;8.55;;;;;;;28.00;31.88;101094.38;5033539;28;20033;-92
2022/04/17 10:01:24;;;;;;;11.40;8.68;;;;;;;27.74;31.47;101086.13;5032116;28;20026;-92
2022/04/17 10:03:50;;;;;;;10.95;8.13;;;;;;;27.80;31.36;101083.44;5033378;28;20231;-92
2022/04/17 10:06:15;;;;;;;12.80;10.10;;;;;;;27.65;31.79;101086.31;5032755;28;20518;-92
2022/04/17 10:08:45;;;;;;;14.70;9.57;;;;;;;27.86;31.56;101081.81;5033267;28;20017;-93
2022/04/17 10:11:13;;;;;;;13.70;8.57;;;;;;;28.04;30.44;101074.03;5033057;28;20155;-93
2022/04/17 10:13:40;;;;;;;10.50;7.25;;;;;;;28.30;30.62;101069.72;5033278;28;20064;-92
2022/04/17 10:16:08;;;;;;;11.65;7.78;;;;;;;28.51;30.65;101071.44;5033297;28;20365;-92
2022/04/17 10:18:38;;;;;;;9.68;6.72;;;;;;;28.75;30.41;101072.69;5033264;28;20514;-92
2022/04/17 10:21:05;;;;;;;14.23;7.28;;;;;;;28.37;30.02;101064.31;5033007;28;20022;-93
2022/04/17 10:23:31;;;;;;;12.65;7.75;;;;;;;28.30;30.56;101053.53;5031932;28;20473;-93
2022/04/17 10:26:00;;;;;;;9.63;7.22;;;;;;;28.21;30.13;101047.47;5033651;28;20361;-93
2022/04/17 10:28:29;;;;;;;9.18;7.03;;;;;;;28.47;30.14;101030.47;5033393;28;20021;-93
2022/04/17 10:31:03;;;;;;;9.32;6.25;;;;;;;28.53;30.11;101041.50;5037951;28;20032;-93
2022/04/17 10:33:33;;;;;;;10.07;6.78;;;;;;;28.70;29.73;101033.84;5036140;28;20029;-94
2022/04/17 10:36:15;;;;;;;9.30;6.43;;;;;;;28.57;30.04;101035.47;5034265;28;20025;-93
2022/04/17 10:39:32;;;;;;;6.78;5.43;;;;;;;28.47;29.72;101029.63;5038925;28;20041;-93
2022/04/17 10:41:58;;;;;;;7.63;5.93;;;;;;;28.23;29.65;101031.06;5054264;28;20028;-93
2022/04/17 10:44:29;;;;;;;7.55;4.95;;;;;;;28.15;30.19;101020.47;5035027;28;20021;-92
2022/04/17 10:46:56;;;;;;;6.88;5.20;;;;;;;28.12;30.62;101023.56;5031356;28;20044;-93
2022/04/17 10:49:27;;;;;;;6.45;4.97;;;;;;;28.58;29.89;101020.13;5032142;28;20036;-93
2022/04/17 10:51:57;;;;;;;7.70;4.93;;;;;;;28.05;28.84;101029.78;5033404;28;20030;-94
2022/04/17 10:54:23;;;;;;;5.63;4.30;;;;;;;28.14;30.06;101008.84;5032304;28;20028;-95
2022/04/17 10:56:55;;;;;;;5.82;4.70;;;;;;;28.41;29.81;101023.19;5033331;28;20399;-94
2022/04/17 10:59:29;;;;;;;10.50;6.28;;;;;;;27.88;29.77;101012.31;5035303;28;20030;-94
2022/04/17 11:02:06;;;;;;;4.97;3.70;;;;;;;27.96;29.27;101012.13;5037762;28;20022;-95
2022/04/17 11:04:50;;;;;;;6.55;3.20;;;;;;;28.08;29.15;101005.09;5037349;28;20032;-95
2022/04/17 11:07:15;;;;;;;4.93;3.50;;;;;;;28.18;29.38;101010.09;5036372;28;20029;-96
2022/04/17 11:09:46;;;;;;;5.60;3.47;;;;;;;27.91;28.95;101003.00;5036175;28;20518;-95
2022/04/17 11:12:17;;;;;;;3.77;3.03;;;;;;;28.00;28.31;101008.00;5036179;28;20029;-95
2022/04/17 11:14:54;;;;;;;;;;;;;;;27.66;28.39;101017.81;5036595;28;20021;-95
2022/04/17 11:17:21;;;;;;;3.70;2.03;;;;;;;27.92;28.50;100989.28;5043561;28;20278;-95
2022/04/17 11:19:48;;;;;;;3.70;2.45;;;;;;;28.27;28.07;100970.22;5037605;28;20057;-95
2022/04/17 11:22:16;;;;;;;2.95;1.83;;;;;;;28.46;27.57;100996.41;5036105;28;20384;-95